Baldwin, Kansas
Current Conditions -  °F | °C
As of 6:52 AM on Friday 19 Dec 2014 (Local Time) from KLWC Reporting Station
Overcast Overcast  
Wind Chill: 24°   Ceiling: 700
Heat Index: 31°   Visibility: 7mi
Dew Point: 28°   Wind: 7mph
Humidity: 89%   Direction: 30°NNE
Pressure: 30.25"   Gusts: NA
Location:  38.8017°N, 95.2855°W
Report Text: KLWC 191252Z AUTO 03006KT 7SM OVC007 M01/M02 A3025 RMK AO2 SLP252 T10061022
Loading
Personal Weather Stations






























Interactive Weather Map New forecast layout! Learn more

10-Day Weather Forecast

Advertisements
Track Severe Weather on mobile